Menu Close Menu
Station Historical Data
Daily Summary for July 5, 2017 Units:  Metric    English   Both
« Previous Day
Next Day »
Daily Weekly Monthly Yearly Custom
  High: Low: Average:
Temperature: 31.9 °C 20.9 °C 25.3 °C
Dew Point: 24.9 °C 19.8 °C 21.8 °C
Humidity: 95% 54% 82%
Wind Speed: 11.4km/h 0km/h 8.5km/h
Wind Gust: 11.4km/h - -
Wind- - SSW
Pressure: 1021.2 hPa 1018.8 hPa -
Precipitation: 0 mm    
Historical Graphs
 
 
Tabular Data for July 5, 2017
Time Temperature Dew Point Pressure Wind Wind Speed Wind Gust Humidity Rainfall Rate (Hourly) solar Conditions
00:03 21.3 °C 20.3 °C 1019.2 hPa WNW 11.4 km/h   94% 0 mm WeatherDisplay:10.37 W/m2 BKN
00:08 21.4 °C 20.4 °C 1019.2 hPa WNW 11.4 km/h   94% 0 mm WeatherDisplay:10.37 W/m2 BKN
00:13 21.4 °C 20.4 °C 1019.2 hPa WNW 11.4 km/h   94% 0 mm WeatherDisplay:10.37 W/m2 BKN
00:18 21.4 °C 20.4 °C 1019.2 hPa WNW 11.4 km/h   94% 0 mm WeatherDisplay:10.37 W/m2 SCT
00:23 21.4 °C 20.2 °C 1019.2 hPa WNW 11.4 km/h   93% 0 mm WeatherDisplay:10.37 W/m2 SCT
00:28 21.4 °C 20.2 °C 1019.2 hPa WNW 11.4 km/h   93% 0 mm WeatherDisplay:10.37 W/m2 SCT
00:34 21.4 °C 20.4 °C 1019.2 hPa WNW 11.4 km/h   94% 0 mm WeatherDisplay:10.37 W/m2 SCT
00:39 21.4 °C 20.4 °C 1019.2 hPa WNW 11.4 km/h   94% 0 mm WeatherDisplay:10.37 W/m2 SCT
00:44 21.4 °C 20.2 °C 1019.2 hPa WNW 11.4 km/h   93% 0 mm WeatherDisplay:10.37 W/m2 SCT
00:49 21.3 °C 20.2 °C 1019.2 hPa WNW 11.4 km/h   93% 0 mm WeatherDisplay:10.37 W/m2 SCT
00:54 21.4 °C 20.4 °C 1019.2 hPa WNW 11.4 km/h   94% 0 mm WeatherDisplay:10.37 W/m2 SCT
00:59 21.4 °C 20.4 °C 1019.2 hPa WNW 11.4 km/h   94% 0 mm WeatherDisplay:10.37 W/m2 SCT
01:04 21.4 °C 20.4 °C 1019.2 hPa WNW 11.4 km/h   94% 0 mm WeatherDisplay:10.37 W/m2 SCT
01:09 21.4 °C 20.4 °C 1019.2 hPa WNW 11.4 km/h   94% 0 mm WeatherDisplay:10.37 W/m2 SCT
01:14 21.4 °C 20.4 °C 1019.2 hPa WNW 11.4 km/h   94% 0 mm WeatherDisplay:10.37 W/m2 SCT
01:19 21.4 °C 20.4 °C 1019.2 hPa WNW 11.4 km/h   94% 0 mm WeatherDisplay:10.37 W/m2 FEW
01:24 21.4 °C 20.4 °C 1019.2 hPa WNW 11.4 km/h   94% 0 mm WeatherDisplay:10.37 W/m2 FEW
01:29 21.4 °C 20.4 °C 1019.2 hPa WNW 11.4 km/h   94% 0 mm WeatherDisplay:10.37 W/m2 FEW
01:34 21.4 °C 20.4 °C 1019.2 hPa WNW 11.4 km/h   94% 0 mm WeatherDisplay:10.37 W/m2 FEW
01:39 21.5 °C 20.5 °C 1019.2 hPa WNW 11.4 km/h   94% 0 mm WeatherDisplay:10.37 W/m2 FEW
01:44 21.4 °C 20.4 °C 1019.2 hPa WNW 11.4 km/h   94% 0 mm WeatherDisplay:10.37 W/m2 FEW
01:49 21.4 °C 20.4 °C 1019.2 hPa WNW 11.4 km/h   94% 0 mm WeatherDisplay:10.37 W/m2 FEW
01:54 21.4 °C 20.4 °C 1019.2 hPa WNW 11.4 km/h   94% 0 mm WeatherDisplay:10.37 W/m2 FEW
02:00 21.4 °C 20.4 °C 1019.2 hPa WNW 11.4 km/h   94% 0 mm WeatherDisplay:10.37 W/m2 FEW
02:05 21 °C 19.8 °C 1019.2 hPa Calm     93% 0 mm WeatherDisplay:10.37 W/m2 FEW
02:10 20.9 °C 20.1 °C 1019.2 hPa Calm     95% 0 mm WeatherDisplay:10.37 W/m2 FEW
02:15 20.9 °C 20.1 °C 1019.2 hPa WNW 11.4 km/h   95% 0 mm WeatherDisplay:10.37 W/m2 FEW
02:20 20.9 °C 20.1 °C 1019.2 hPa North 11.4 km/h   95% 0 mm WeatherDisplay:10.37 W/m2 SCT
02:21 20.9 °C 20.1 °C 1019.2 hPa North 11.4 km/h   95% 0 mm WeatherDisplay:10.37 W/m2 SCT
02:26 20.9 °C 20.1 °C 1019.2 hPa North 11.4 km/h   95% 0 mm WeatherDisplay:10.37 W/m2 SCT
02:31 20.9 °C 20.1 °C 1019.2 hPa North 11.4 km/h   95% 0 mm WeatherDisplay:10.37 W/m2 SCT
02:36 20.9 °C 20.1 °C 1019.2 hPa North 11.4 km/h   95% 0 mm WeatherDisplay:10.37 W/m2 SCT
02:41 20.9 °C 20.1 °C 1019.2 hPa North 11.4 km/h   95% 0 mm WeatherDisplay:10.37 W/m2 SCT
02:46 20.9 °C 20.1 °C 1019.2 hPa North 11.4 km/h   95% 0 mm WeatherDisplay:10.37 W/m2 SCT
02:52 20.9 °C 20.1 °C 1019.2 hPa North 11.4 km/h   95% 0 mm WeatherDisplay:10.37 W/m2 SCT
02:57 20.9 °C 20.1 °C 1019.2 hPa North 11.4 km/h   95% 0 mm WeatherDisplay:10.37 W/m2 SCT
03:02 20.9 °C 20.1 °C 1019.2 hPa North 11.4 km/h   95% 0 mm WeatherDisplay:10.37 W/m2 SCT
03:07 20.9 °C 20.1 °C 1019.2 hPa North 11.4 km/h   95% 0 mm WeatherDisplay:10.37 W/m2 SCT
03:12 20.9 °C 20.1 °C 1019.2 hPa North 11.4 km/h   95% 0 mm WeatherDisplay:10.37 W/m2 SCT
03:17 20.9 °C 20.1 °C 1019.2 hPa North 11.4 km/h   95% 0 mm WeatherDisplay:10.37 W/m2 CLR
03:22 20.9 °C 20.1 °C 1019.2 hPa North 11.4 km/h   95% 0 mm WeatherDisplay:10.37 W/m2 CLR
03:27 20.9 °C 20.1 °C 1019.2 hPa North 11.4 km/h   95% 0 mm WeatherDisplay:10.37 W/m2 CLR
03:32 20.9 °C 20.1 °C 1019.2 hPa North 11.4 km/h   95% 0 mm WeatherDisplay:10.37 W/m2 CLR
03:37 20.9 °C 20.1 °C 1019.2 hPa North 11.4 km/h   95% 0 mm WeatherDisplay:10.37 W/m2 CLR
03:42 20.9 °C 20.1 °C 1019.2 hPa North 11.4 km/h   95% 0 mm WeatherDisplay:10.37 W/m2 CLR
03:47 20.9 °C 20.1 °C 1019.2 hPa North 11.4 km/h   95% 0 mm WeatherDisplay:10.37 W/m2 CLR
03:52 20.9 °C 20.1 °C 1019.2 hPa North 11.4 km/h   95% 0 mm WeatherDisplay:10.37 W/m2 CLR
03:57 20.9 °C 20.1 °C 1019.2 hPa North 11.4 km/h   95% 0 mm WeatherDisplay:10.37 W/m2 CLR
04:03 20.9 °C 20.1 °C 1019.2 hPa North 11.4 km/h   95% 0 mm WeatherDisplay:10.37 W/m2 CLR
04:08 20.9 °C 20.1 °C 1019.5 hPa North 11.4 km/h   95% 0 mm WeatherDisplay:10.37 W/m2 CLR
04:13 20.9 °C 20.1 °C 1019.5 hPa North 11.4 km/h   95% 0 mm WeatherDisplay:10.37 W/m2 CLR
04:18 20.9 °C 20.1 °C 1019.5 hPa North 11.4 km/h   95% 0 mm WeatherDisplay:10.37 W/m2 BKN
04:23 20.9 °C 20.1 °C 1019.5 hPa North 11.4 km/h   95% 0 mm WeatherDisplay:10.37 W/m2 BKN
04:28 20.9 °C 20.1 °C 1019.5 hPa North 11.4 km/h   95% 0 mm WeatherDisplay:10.37 W/m2 BKN
04:33 20.9 °C 20.1 °C 1019.5 hPa North 11.4 km/h   95% 0 mm WeatherDisplay:10.37 W/m2 BKN
04:38 20.9 °C 20.1 °C 1019.5 hPa North 11.4 km/h   95% 0 mm WeatherDisplay:10.37 W/m2 BKN
04:43 20.9 °C 20.1 °C 1019.5 hPa North 11.4 km/h   95% 0 mm WeatherDisplay:10.37 W/m2 BKN
04:48 20.9 °C 20.1 °C 1019.5 hPa North 11.4 km/h   95% 0 mm WeatherDisplay:10.37 W/m2 BKN
04:53 20.9 °C 20.1 °C 1019.5 hPa North 11.4 km/h   95% 0 mm WeatherDisplay:10.37 W/m2 BKN
04:58 20.9 °C 20.1 °C 1019.5 hPa North 11.4 km/h   95% 0 mm WeatherDisplay:10.37 W/m2 BKN
05:03 20.9 °C 20.1 °C 1019.5 hPa North 11.4 km/h   95% 0 mm WeatherDisplay:10.37 W/m2 BKN
05:08 20.9 °C 20.1 °C 1019.5 hPa North 11.4 km/h   95% 0 mm WeatherDisplay:10.37 W/m2 BKN
05:13 20.9 °C 20.1 °C 1019.5 hPa North 11.4 km/h   95% 0 mm WeatherDisplay:10.37 W/m2 BKN
05:18 20.9 °C 20.1 °C 1019.5 hPa North 11.4 km/h   95% 0 mm WeatherDisplay:10.37 W/m2 CLR
05:23 20.9 °C 20.1 °C 1019.5 hPa North 11.4 km/h   95% 0 mm WeatherDisplay:10.37 W/m2 CLR
05:29 20.9 °C 20.1 °C 1019.5 hPa North 11.4 km/h   95% 0 mm WeatherDisplay:10.37 W/m2 CLR
05:34 20.9 °C 20.1 °C 1019.5 hPa North 11.4 km/h   95% 0 mm WeatherDisplay:10.37 W/m2 CLR
05:39 20.9 °C 20.1 °C 1019.5 hPa North 11.4 km/h   95% 0 mm WeatherDisplay:10.37 W/m2 CLR
05:44 20.9 °C 20.1 °C 1019.5 hPa North 11.4 km/h   95% 0 mm WeatherDisplay:10.37 W/m2 CLR
05:49 20.9 °C 20.1 °C 1019.5 hPa North 11.4 km/h   95% 0 mm WeatherDisplay:10.37 W/m2 CLR
05:54 20.9 °C 20.1 °C 1019.9 hPa North 11.4 km/h   95% 0 mm WeatherDisplay:10.37 W/m2 CLR
05:59 20.9 °C 20.1 °C 1019.9 hPa North 11.4 km/h   95% 0 mm WeatherDisplay:10.37 W/m2 CLR
06:03 20.9 °C 20.1 °C 1019.9 hPa North 11.4 km/h   95% 0 mm WeatherDisplay:10.37 W/m2 CLR
06:08 20.9 °C 20.1 °C 1019.9 hPa North 11.4 km/h   95% 0 mm WeatherDisplay:10.37 W/m2 CLR
06:13 20.9 °C 20.1 °C 1019.9 hPa North 11.4 km/h   95% 0 mm WeatherDisplay:10.37 W/m2 CLR
06:18 20.9 °C 20.1 °C 1019.9 hPa North 11.4 km/h   95% 0 mm WeatherDisplay:10.37 W/m2 CLR
06:23 20.9 °C 20.1 °C 1019.9 hPa North 11.4 km/h   95% 0 mm WeatherDisplay:10.37 W/m2 CLR
06:28 20.9 °C 20.1 °C 1019.9 hPa North 11.4 km/h   95% 0 mm WeatherDisplay:10.37 W/m2 CLR
06:33 20.9 °C 20.1 °C 1020.2 hPa North 11.4 km/h   95% 0 mm WeatherDisplay:10.37 W/m2 CLR
06:38 20.9 °C 20.1 °C 1020.2 hPa North 11.4 km/h   95% 0 mm WeatherDisplay:10.37 W/m2 CLR
06:43 20.9 °C 20.1 °C 1020.2 hPa North 11.4 km/h   95% 0 mm WeatherDisplay:10.37 W/m2 CLR
06:48 20.9 °C 20.1 °C 1020.2 hPa North 11.4 km/h   95% 0 mm WeatherDisplay:10.37 W/m2 CLR
06:53 20.9 °C 20.1 °C 1020.2 hPa North 11.4 km/h   95% 0 mm WeatherDisplay:10.37 W/m2 CLR
06:58 20.9 °C 20.1 °C 1020.2 hPa North 11.4 km/h   95% 0 mm WeatherDisplay:10.37 W/m2 CLR
07:03 20.9 °C 20.1 °C 1020.2 hPa North 11.4 km/h   95% 0 mm WeatherDisplay:10.37 W/m2 CLR
07:08 20.9 °C 20.1 °C 1020.2 hPa North 11.4 km/h   95% 0 mm WeatherDisplay:10.37 W/m2 CLR
07:13 20.9 °C 20.1 °C 1020.2 hPa North 11.4 km/h   95% 0 mm WeatherDisplay:10.37 W/m2 CLR
07:19 20.9 °C 20.1 °C 1020.2 hPa North 11.4 km/h   95% 0 mm WeatherDisplay:10.37 W/m2 FEW
07:24 20.9 °C 20.1 °C 1020.2 hPa North 11.4 km/h   95% 0 mm WeatherDisplay:10.37 W/m2 FEW
07:25 31.5 °C 21.1 °C 1019.5 hPa Calm   1.6 km/h 54% 0 mm WeatherDisplay:10.37 W/m2
07:29 20.9 °C 20.1 °C 1020.2 hPa North 11.4 km/h   95% 0 mm WeatherDisplay:10.37 W/m2 FEW
07:34 20.9 °C 20.1 °C 1020.2 hPa North 11.4 km/h   95% 0 mm WeatherDisplay:10.37 W/m2 FEW
07:39 20.9 °C 20.1 °C 1020.2 hPa North 11.4 km/h   95% 0 mm WeatherDisplay:10.37 W/m2 FEW
07:44 20.9 °C 20.1 °C 1020.5 hPa North 11.4 km/h   95% 0 mm WeatherDisplay:10.37 W/m2 FEW
07:49 20.9 °C 20.1 °C 1020.5 hPa North 11.4 km/h   95% 0 mm WeatherDisplay:10.37 W/m2 FEW
07:54 20.9 °C 20.1 °C 1020.5 hPa North 11.4 km/h   95% 0 mm WeatherDisplay:10.37 W/m2 FEW
07:59 20.9 °C 20.1 °C 1020.5 hPa North 11.4 km/h   95% 0 mm WeatherDisplay:10.37 W/m2 FEW
08:04 20.9 °C 20.1 °C 1020.5 hPa North 11.4 km/h   95% 0 mm WeatherDisplay:10.37 W/m2 FEW
08:09 20.9 °C 20.1 °C 1020.5 hPa North 11.4 km/h   95% 0 mm WeatherDisplay:10.37 W/m2 FEW
08:14 22.3 °C 21.3 °C 1020.5 hPa WNW 11.4 km/h   94% 0 mm WeatherDisplay:10.37 W/m2 FEW
08:19 22.5 °C 21.5 °C 1020.5 hPa WNW 11.4 km/h   94% 0 mm WeatherDisplay:10.37 W/m2 CLR
08:24 22.6 °C 21.6 °C 1020.5 hPa WNW 11.4 km/h   94% 0 mm WeatherDisplay:10.37 W/m2 CLR
08:29 22.8 °C 21.8 °C 1020.5 hPa WNW 11.4 km/h   94% 0 mm WeatherDisplay:10.37 W/m2 CLR
08:34 22.9 °C 21.9 °C 1020.5 hPa WNW 11.4 km/h   94% 0 mm WeatherDisplay:10.37 W/m2 CLR
08:39 23.1 °C 22.1 °C 1020.5 hPa WNW 11.4 km/h   94% 0 mm WeatherDisplay:10.37 W/m2 CLR
08:44 23.3 °C 22.3 °C 1020.5 hPa WNW 11.4 km/h   94% 0 mm WeatherDisplay:10.37 W/m2 CLR
08:46 23.4 °C 22.4 °C 1020.5 hPa WNW 11.4 km/h   94% 0 mm WeatherDisplay:10.37 W/m2 CLR
08:51 23.6 °C 22.6 °C 1020.5 hPa WNW 11.4 km/h   94% 0 mm WeatherDisplay:10.37 W/m2 CLR
08:56 23.9 °C 22.9 °C 1020.9 hPa WNW 11.4 km/h   94% 0 mm WeatherDisplay:10.37 W/m2 CLR
09:02 24.2 °C 23.2 °C 1020.5 hPa WNW 11.4 km/h   94% 0 mm WeatherDisplay:10.37 W/m2 CLR
09:07 24.4 °C 23.3 °C 1020.5 hPa WNW 11.4 km/h   94% 0 mm WeatherDisplay:10.37 W/m2 CLR
09:12 24.6 °C 23.5 °C 1020.9 hPa WNW 11.4 km/h   94% 0 mm WeatherDisplay:10.37 W/m2 CLR
09:17 24.7 °C 23.7 °C 1020.9 hPa WNW 11.4 km/h   94% 0 mm WeatherDisplay:10.37 W/m2 FEW
09:22 24.7 °C 23.7 °C 1020.9 hPa WNW 11.4 km/h   94% 0 mm WeatherDisplay:10.37 W/m2 FEW
09:24 24.8 °C 23.7 °C 1020.9 hPa WNW 11.4 km/h   94% 0 mm WeatherDisplay:10.37 W/m2 FEW
09:29 25 °C 23.9 °C 1020.9 hPa WNW 11.4 km/h   94% 0 mm WeatherDisplay:10.37 W/m2 FEW
09:34 25 °C 23.9 °C 1020.9 hPa WNW 11.4 km/h   94% 0 mm WeatherDisplay:10.37 W/m2 FEW
09:39 25 °C 23.9 °C 1020.9 hPa WNW 11.4 km/h   94% 0 mm WeatherDisplay:10.37 W/m2 FEW
09:44 25 °C 23.9 °C 1020.9 hPa SSW 11.4 km/h   94% 0 mm WeatherDisplay:10.37 W/m2 FEW
09:49 25.2 °C 24.2 °C 1020.9 hPa West 11.4 km/h 11.4 km/h 94% 0 mm WeatherDisplay:10.37 W/m2 FEW
09:54 25.6 °C 24.3 °C 1020.9 hPa West 11.4 km/h   93% 0 mm WeatherDisplay:10.37 W/m2 FEW
09:58 25.7 °C 24.2 °C 1020.9 hPa WNW 11.4 km/h 11.4 km/h 91% 0 mm WeatherDisplay:10.37 W/m2 FEW
10:03 26.1 °C 24.2 °C 1020.9 hPa WNW 11.4 km/h 11.4 km/h 89% 0 mm WeatherDisplay:10.37 W/m2 FEW
10:08 26.5 °C 24.2 °C 1020.9 hPa WSW 11.4 km/h 11.4 km/h 87% 0 mm WeatherDisplay:10.37 W/m2 FEW
10:13 26.8 °C 23.9 °C 1020.9 hPa NNW 11.4 km/h 11.4 km/h 84% 0 mm WeatherDisplay:10.37 W/m2 FEW
10:18 27.3 °C 24.6 °C 1020.9 hPa NW 11.4 km/h 11.4 km/h 85% 0 mm WeatherDisplay:10.37 W/m2 FEW
10:23 27.7 °C 24.9 °C 1020.9 hPa NW 11.4 km/h   85% 0 mm WeatherDisplay:10.37 W/m2 FEW
10:28 28 °C 24.4 °C 1020.9 hPa NW 11.4 km/h   81% 0 mm WeatherDisplay:10.37 W/m2 FEW
10:33 28.2 °C 24.4 °C 1020.9 hPa WSW 11.4 km/h 11.4 km/h 80% 0 mm WeatherDisplay:10.37 W/m2 FEW
10:39 28.3 °C 24.3 °C 1021.2 hPa WSW 11.4 km/h   79% 0 mm WeatherDisplay:10.37 W/m2 FEW
10:44 28.4 °C 24.4 °C 1021.2 hPa WSW 11.4 km/h 11.4 km/h 79% 0 mm WeatherDisplay:10.37 W/m2 FEW
10:49 28.6 °C 24.6 °C 1020.9 hPa West 11.4 km/h   79% 0 mm WeatherDisplay:10.37 W/m2 FEW
10:54 28.5 °C 24.1 °C 1020.9 hPa South 11.4 km/h   77% 0 mm WeatherDisplay:10.37 W/m2 FEW
10:59 28.4 °C 24.4 °C 1020.9 hPa West 11.4 km/h   79% 0 mm WeatherDisplay:10.37 W/m2 FEW
11:04 28.4 °C 24.7 °C 1020.9 hPa West 11.4 km/h   80% 0 mm WeatherDisplay:10.37 W/m2 FEW
11:09 28.5 °C 24.1 °C 1020.9 hPa NW 11.4 km/h   77% 0 mm WeatherDisplay:10.37 W/m2 FEW
11:14 28.6 °C 24.3 °C 1020.9 hPa ESE 11.4 km/h   78% 0 mm WeatherDisplay:10.37 W/m2 FEW
11:19 28.7 °C 24 °C 1020.9 hPa SW 11.4 km/h 11.4 km/h 76% 0 mm WeatherDisplay:10.37 W/m2 FEW
11:24 28.9 °C 24.4 °C 1020.9 hPa WNW 11.4 km/h   77% 0 mm WeatherDisplay:10.37 W/m2 FEW
11:29 28.9 °C 23.8 °C 1020.9 hPa WSW 11.4 km/h   74% 0 mm WeatherDisplay:10.37 W/m2 FEW
11:34 28.9 °C 23.8 °C 1020.9 hPa ENE 11.4 km/h 11.4 km/h 74% 0 mm WeatherDisplay:10.37 W/m2 FEW
11:39 28.9 °C 23.8 °C 1020.9 hPa NNW 11.4 km/h 11.4 km/h 74% 0 mm WeatherDisplay:10.37 W/m2 FEW
11:44 29.1 °C 24 °C 1020.9 hPa SW 11.4 km/h   74% 0 mm WeatherDisplay:10.37 W/m2 FEW
11:49 29.3 °C 23.9 °C 1020.9 hPa NW 11.4 km/h   73% 0 mm WeatherDisplay:10.37 W/m2 FEW
11:54 29.4 °C 23.9 °C 1020.9 hPa NNW 11.4 km/h 11.4 km/h 72% 0 mm WeatherDisplay:10.37 W/m2 FEW
11:59 29.7 °C 24.6 °C 1020.9 hPa NW 11.4 km/h   74% 0 mm WeatherDisplay:10.37 W/m2 FEW
12:04 29.8 °C 24 °C 1020.9 hPa NW 11.4 km/h   71% 0 mm WeatherDisplay:10.37 W/m2 FEW
12:09 29.7 °C 23.9 °C 1020.9 hPa NNW 11.4 km/h   71% 0 mm WeatherDisplay:10.37 W/m2 FEW
12:14 29.4 °C 23.6 °C 1020.9 hPa SW 11.4 km/h 11.4 km/h 71% 0 mm WeatherDisplay:10.37 W/m2 FEW
12:15 29.4 °C 23.8 °C 1020.9 hPa Calm   3.2 km/h 72% 0 mm WeatherDisplay:10.37 W/m2 FEW
12:20 29.3 °C 24.2 °C 1020.9 hPa Calm   1.6 km/h 74% 0 mm WeatherDisplay:10.37 W/m2 BKN
12:25 29.5 °C 23.9 °C 1020.9 hPa NW 11.4 km/h   72% 0 mm WeatherDisplay:10.37 W/m2 BKN
12:30 29.8 °C 23.6 °C 1020.5 hPa Calm   1.6 km/h 69% 0 mm WeatherDisplay:10.37 W/m2 BKN
12:35 30.2 °C 23.7 °C 1020.5 hPa Calm     68% 0 mm WeatherDisplay:10.37 W/m2 BKN
12:40 30.4 °C 22.6 °C 1020.5 hPa Calm   3.2 km/h 63% 0 mm WeatherDisplay:10.37 W/m2 BKN
12:45 30.7 °C 23.9 °C 1020.5 hPa Calm   1.6 km/h 67% 0 mm WeatherDisplay:10.37 W/m2 BKN
12:50 31.2 °C 24.1 °C 1020.5 hPa Calm   1.6 km/h 66% 0 mm WeatherDisplay:10.37 W/m2 BKN
12:55 31.6 °C 24.4 °C 1020.5 hPa Calm   3.2 km/h 66% 0 mm WeatherDisplay:10.37 W/m2 BKN
13:00 31.9 °C 23.7 °C 1020.2 hPa SW 11.4 km/h   62% 0 mm WeatherDisplay:10.37 W/m2 BKN
13:05 31.9 °C 23.5 °C 1020.2 hPa Calm   3.2 km/h 61% 0 mm WeatherDisplay:10.37 W/m2 BKN
13:10 31.8 °C 23.1 °C 1020.2 hPa Calm   1.6 km/h 60% 0 mm WeatherDisplay:10.37 W/m2 BKN
13:15 31.6 °C 23.7 °C 1020.2 hPa Calm     63% 0 mm WeatherDisplay:10.37 W/m2 BKN
13:20 31.4 °C 23.8 °C 1020.2 hPa Calm   1.6 km/h 64% 0 mm WeatherDisplay:10.37 W/m2 BKN
13:25 31.6 °C 24.2 °C 1020.2 hPa Calm   4.8 km/h 65% 0 mm WeatherDisplay:10.37 W/m2 BKN
13:30 31.8 °C 23.6 °C 1020.2 hPa Calm   1.6 km/h 62% 0 mm WeatherDisplay:10.37 W/m2 BKN
13:35 31.6 °C 22.9 °C 1020.2 hPa Calm   1.6 km/h 60% 0 mm WeatherDisplay:10.37 W/m2 BKN
13:40 31.3 °C 22.9 °C 1020.2 hPa Calm   1.6 km/h 61% 0 mm WeatherDisplay:10.37 W/m2 BKN
13:45 31.2 °C 23 °C 1020.2 hPa Calm   1.6 km/h 62% 0 mm WeatherDisplay:10.37 W/m2 BKN
13:50 31.3 °C 23.4 °C 1020.2 hPa Calm   1.6 km/h 63% 0 mm WeatherDisplay:10.37 W/m2 BKN
13:55 31.6 °C 23.1 °C 1020.2 hPa SE 11.4 km/h   61% 0 mm WeatherDisplay:10.37 W/m2 BKN
14:00 31.7 °C 23 °C 1020.2 hPa Calm   1.6 km/h 60% 0 mm WeatherDisplay:10.37 W/m2 BKN
14:05 31.7 °C 23.8 °C 1020.2 hPa Calm     63% 0 mm WeatherDisplay:10.37 W/m2 BKN
14:10 31.6 °C 23.1 °C 1019.9 hPa Calm   4.8 km/h 61% 0 mm WeatherDisplay:10.37 W/m2 BKN
14:15 31.7 °C 23.3 °C 1019.9 hPa Calm     61% 0 mm WeatherDisplay:10.37 W/m2 BKN
14:20 31.8 °C 23.3 °C 1019.9 hPa SSE 1.6 km/h 3.2 km/h 61% 0 mm WeatherDisplay:10.37 W/m2 BKN
14:25 31.6 °C 23.7 °C 1019.5 hPa Calm   1.6 km/h 63% 0 mm WeatherDisplay:10.37 W/m2 BKN
14:30 31.6 °C 22.9 °C 1019.5 hPa Calm   1.6 km/h 60% 0 mm WeatherDisplay:10.37 W/m2 BKN
14:35 31.7 °C 22.9 °C 1019.5 hPa Calm   1.6 km/h 60% 0 mm WeatherDisplay:10.37 W/m2 BKN
14:40 31.5 °C 23.6 °C 1019.5 hPa Calm   1.6 km/h 63% 0 mm WeatherDisplay:10.37 W/m2 BKN
14:41 31.4 °C 22.2 °C 1019.5 hPa NE 11.4 km/h   58% 0 mm WeatherDisplay:10.37 W/m2 BKN
14:46 31.3 °C 22.6 °C 1019.5 hPa NE 11.4 km/h 11.4 km/h 60% 0 mm WeatherDisplay:10.37 W/m2 BKN
14:50 31.3 °C 22.8 °C 1019.5 hPa NE 11.4 km/h   61% 0 mm WeatherDisplay:10.37 W/m2 BKN
14:55 31.3 °C 23.4 °C 1019.5 hPa NNW 11.4 km/h   63% 0 mm WeatherDisplay:10.37 W/m2 BKN
15:00 31.3 °C 22.6 °C 1019.5 hPa SW 11.4 km/h 11.4 km/h 60% 0 mm WeatherDisplay:10.37 W/m2 BKN
15:05 31.3 °C 22.1 °C 1019.5 hPa WNW 11.4 km/h   58% 0 mm WeatherDisplay:10.37 W/m2 BKN
15:10 31.4 °C 23.5 °C 1019.5 hPa NW 11.4 km/h   63% 0 mm WeatherDisplay:10.37 W/m2 BKN
15:15 31.5 °C 22.8 °C 1019.5 hPa NW 11.4 km/h   60% 0 mm WeatherDisplay:10.37 W/m2 BKN
15:20 31.5 °C 22.8 °C 1019.5 hPa NNW 11.4 km/h   60% 0 mm WeatherDisplay:10.37 W/m2 BKN
15:27 31.5 °C 21.9 °C 1019.5 hPa North 1.6 km/h   57% 0 mm WeatherDisplay:10.37 W/m2 BKN
15:33 31.4 °C 21.6 °C 1019.5 hPa NNW 1.9 km/h   56% 0 mm WeatherDisplay:10.37 W/m2 BKN
15:38 31.4 °C 22.4 °C 1019.5 hPa North 1.9 km/h   59% 0 mm WeatherDisplay:10.37 W/m2 BKN
15:43 31.3 °C 21.7 °C 1019.2 hPa NNW 1.9 km/h 1.9 km/h 57% 0 mm WeatherDisplay:10.37 W/m2 BKN
15:48 30.9 °C 21.4 °C 1019.2 hPa WNW 1.9 km/h 1.9 km/h 57% 0 mm WeatherDisplay:10.37 W/m2 BKN
15:53 30.7 °C 22.3 °C 1019.2 hPa ENE 1.9 km/h   61% 0 mm WeatherDisplay:10.37 W/m2 BKN
15:58 30.4 °C 22.3 °C 1019.2 hPa ENE 1.9 km/h   62% 0 mm WeatherDisplay:10.37 W/m2 BKN
16:03 30.2 °C 23.1 °C 1019.2 hPa ENE 1.9 km/h 1.9 km/h 66% 0 mm WeatherDisplay:10.37 W/m2 BKN
16:08 30.3 °C 23.4 °C 1019.2 hPa ENE 1.9 km/h   67% 0 mm WeatherDisplay:10.37 W/m2 BKN
16:13 30.6 °C 22.7 °C 1019.2 hPa ENE 1.9 km/h 1.9 km/h 63% 0 mm WeatherDisplay:10.37 W/m2 BKN
16:18 30.8 °C 22.7 °C 1019.2 hPa SSW 5 km/h 5 km/h 62% 0 mm WeatherDisplay:10.37 W/m2 BKN
16:23 30.8 °C 22.7 °C 1019.2 hPa SSW 5.6 km/h   62% 0 mm WeatherDisplay:10.37 W/m2 BKN
16:28 30.7 °C 23.1 °C 1019.5 hPa SSW 5.6 km/h   64% 0 mm WeatherDisplay:10.37 W/m2 BKN
16:33 30.4 °C 23.1 °C 1019.5 hPa NW 5.6 km/h   65% 0 mm WeatherDisplay:10.37 W/m2 BKN
16:38 30.1 °C 23.5 °C 1019.9 hPa NW 5.6 km/h   68% 0 mm WeatherDisplay:10.37 W/m2 BKN
16:44 29.8 °C 23.6 °C 1019.9 hPa NW 5.6 km/h   69% 0 mm WeatherDisplay:10.37 W/m2 BKN
16:49 29.7 °C 23.6 °C 1019.9 hPa NW 5.6 km/h   70% 0 mm WeatherDisplay:10.37 W/m2 BKN
16:52 29.5 °C 23.2 °C 1019.9 hPa WNW 5.6 km/h   69% 0 mm WeatherDisplay:10.37 W/m2 BKN
16:57 29.3 °C 23.3 °C 1019.9 hPa West 5.6 km/h 5.6 km/h 70% 0 mm WeatherDisplay:10.37 W/m2 BKN
17:02 29.2 °C 22.7 °C 1019.5 hPa WSW 5.6 km/h 5.6 km/h 68% 0 mm WeatherDisplay:10.37 W/m2 BKN
17:07 29.2 °C 22.4 °C 1019.9 hPa WSW 5.6 km/h   67% 0 mm WeatherDisplay:10.37 W/m2 BKN
17:12 29.1 °C 22.6 °C 1019.9 hPa West 5.6 km/h   68% 0 mm WeatherDisplay:10.37 W/m2 BKN
17:18 29.1 °C 22.6 °C 1019.9 hPa West 5.6 km/h   68% 0 mm WeatherDisplay:10.37 W/m2 -RA
17:23 29 °C 22.5 °C 1019.5 hPa West 5.6 km/h   68% 0 mm WeatherDisplay:10.37 W/m2 -RA
17:28 29 °C 22.7 °C 1019.5 hPa West 5.6 km/h   69% 0 mm WeatherDisplay:10.37 W/m2 OVC
17:33 29.1 °C 22.8 °C 1019.5 hPa West 5.6 km/h   69% 0 mm WeatherDisplay:10.37 W/m2 OVC
17:38 29.2 °C 22.7 °C 1019.5 hPa West 5.6 km/h   68% 0 mm WeatherDisplay:10.37 W/m2 OVC
17:43 29.2 °C 22.7 °C 1019.5 hPa West 5.6 km/h   68% 0 mm WeatherDisplay:10.37 W/m2 OVC
17:48 29.1 °C 22.8 °C 1019.5 hPa West 5.6 km/h   69% 0 mm WeatherDisplay:10.37 W/m2 BKN
17:53 29.1 °C 22.8 °C 1019.5 hPa West 5.6 km/h   69% 0 mm WeatherDisplay:10.37 W/m2 BKN
17:58 29.1 °C 22.3 °C 1019.2 hPa SW 5.6 km/h 5.6 km/h 67% 0 mm WeatherDisplay:10.37 W/m2 BKN
18:03 29.2 °C 23.4 °C 1019.5 hPa East 5.6 km/h   71% 0 mm WeatherDisplay:10.37 W/m2 BKN
18:08 29.2 °C 22.9 °C 1019.2 hPa East 5.6 km/h   69% 0 mm WeatherDisplay:10.37 W/m2 BKN
18:13 29.1 °C 22.6 °C 1019.2 hPa East 5.6 km/h   68% 0 mm WeatherDisplay:10.37 W/m2 BKN
18:18 29 °C 22.5 °C 1019.2 hPa East 5.6 km/h   68% 0 mm WeatherDisplay:10.37 W/m2 BKN
18:23 28.9 °C 22.4 °C 1019.2 hPa East 5.6 km/h   68% 0 mm WeatherDisplay:10.37 W/m2 BKN
18:29 28.7 °C 22.4 °C 1019.2 hPa North 5.6 km/h   69% 0 mm WeatherDisplay:10.37 W/m2 BKN
18:34 28.7 °C 22.7 °C 1019.2 hPa WSW 5.6 km/h 5.6 km/h 70% 0 mm WeatherDisplay:10.37 W/m2 BKN
18:39 28.6 °C 22.6 °C 1019.2 hPa WSW 5.6 km/h   70% 0 mm WeatherDisplay:10.37 W/m2 BKN
18:44 28.6 °C 22.8 °C 1019.2 hPa WSW 5.6 km/h   71% 0 mm WeatherDisplay:10.37 W/m2 BKN
18:49 28.5 °C 23.2 °C 1019.2 hPa WSW 5.6 km/h   73% 0 mm WeatherDisplay:10.37 W/m2 BKN
18:54 28.4 °C 23.1 °C 1019.2 hPa WSW 5.6 km/h   73% 0 mm WeatherDisplay:10.37 W/m2 BKN
18:59 28.3 °C 23.3 °C 1019.2 hPa WSW 5.6 km/h   74% 0 mm WeatherDisplay:10.37 W/m2 BKN
19:04 28.2 °C 23.4 °C 1019.5 hPa SSW 8.2 km/h 8.2 km/h 75% 0 mm WeatherDisplay:10.37 W/m2 BKN
19:09 27.9 °C 22.4 °C 1019.5 hPa WNW 8.2 km/h 8.2 km/h 72% 0 mm WeatherDisplay:10.37 W/m2 BKN
19:15 27.6 °C 22.1 °C 1019.5 hPa NW 8.2 km/h   72% 0 mm WeatherDisplay:10.37 W/m2 BKN
19:20 27.2 °C 21.9 °C 1019.5 hPa NNW 8.2 km/h   73% 0 mm WeatherDisplay:10.37 W/m2 BKN
19:25 26.9 °C 21.4 °C 1019.5 hPa NNW 8.2 km/h   72% 0 mm WeatherDisplay:10.37 W/m2 BKN
19:30 26.6 °C 21.4 °C 1019.2 hPa NNW 8.2 km/h   73% 0 mm WeatherDisplay:10.37 W/m2 -RA
19:35 26.3 °C 21.3 °C 1019.2 hPa NNW 8.2 km/h   74% 0 mm WeatherDisplay:10.37 W/m2 -RA
19:40 26.1 °C 21.6 °C 1019.2 hPa NNW 8.2 km/h   76% 0 mm WeatherDisplay:10.37 W/m2 -RA
19:45 25.9 °C 21.8 °C 1018.8 hPa NNW 8.2 km/h   78% 0 mm WeatherDisplay:10.37 W/m2 BKN
19:50 25.7 °C 21.8 °C 1018.8 hPa NNW 8.2 km/h   79% 0 mm WeatherDisplay:10.37 W/m2 BKN
19:55 25.4 °C 21.9 °C 1019.2 hPa NNW 8.2 km/h   81% 0 mm WeatherDisplay:10.37 W/m2 BKN
20:00 25.2 °C 21.9 °C 1019.2 hPa NNW 8.2 km/h   82% 0 mm WeatherDisplay:10.37 W/m2 BKN
20:06 24.9 °C 22 °C 1019.2 hPa North 8.2 km/h   84% 0 mm WeatherDisplay:10.37 W/m2 BKN
20:11 24.8 °C 21.9 °C 1019.5 hPa North 8.2 km/h   84% 0 mm WeatherDisplay:10.37 W/m2 BKN
20:16 24.7 °C 22 °C 1019.5 hPa North 8.2 km/h   85% 0 mm WeatherDisplay:10.37 W/m2 BKN
20:19 24.7 °C 22 °C 1019.5 hPa North 8.2 km/h   85% 0 mm WeatherDisplay:10.37 W/m2 BKN
20:24 24.6 °C 21.9 °C 1019.5 hPa North 8.2 km/h   85% 0 mm WeatherDisplay:10.37 W/m2 BKN
20:29 24.6 °C 22.1 °C 1019.5 hPa North 8.2 km/h   86% 0 mm WeatherDisplay:10.37 W/m2 BKN
20:34 24.4 °C 21.8 °C 1019.5 hPa North 8.2 km/h   85% 0 mm WeatherDisplay:10.37 W/m2 BKN
20:39 24.4 °C 21.7 °C 1019.5 hPa North 8.2 km/h   85% 0 mm WeatherDisplay:10.37 W/m2 BKN
20:44 24.3 °C 21.8 °C 1019.5 hPa North 8.2 km/h   86% 0 mm WeatherDisplay:10.37 W/m2 BKN
20:49 24.2 °C 21.7 °C 1019.5 hPa North 8.2 km/h   86% 0 mm WeatherDisplay:10.37 W/m2 BKN
20:54 24.1 °C 21.6 °C 1019.2 hPa North 8.2 km/h   86% 0 mm WeatherDisplay:10.37 W/m2 BKN
20:59 24.1 °C 21.6 °C 1019.2 hPa North 8.2 km/h   86% 0 mm WeatherDisplay:10.37 W/m2 BKN
21:04 24.1 °C 21.8 °C 1019.2 hPa North 8.2 km/h   87% 0 mm WeatherDisplay:10.37 W/m2 BKN
21:08 24 °C 21.5 °C 1019.2 hPa North 8.2 km/h   86% 0 mm WeatherDisplay:10.37 W/m2 BKN
21:13 24 °C 21.5 °C 1019.2 hPa North 8.2 km/h   86% 0 mm WeatherDisplay:10.37 W/m2 BKN
21:18 24 °C 21.5 °C 1019.2 hPa North 8.2 km/h   86% 0 mm WeatherDisplay:10.37 W/m2 OVC
21:23 23.9 °C 21.4 °C 1019.2 hPa North 8.2 km/h   86% 0 mm WeatherDisplay:10.37 W/m2 OVC
21:28 23.9 °C 21.4 °C 1019.2 hPa North 8.2 km/h   86% 0 mm WeatherDisplay:10.37 W/m2 OVC
21:33 23.8 °C 21.3 °C 1019.2 hPa North 8.2 km/h   86% 0 mm WeatherDisplay:10.37 W/m2 OVC
21:38 23.8 °C 21.3 °C 1019.2 hPa North 8.2 km/h   86% 0 mm WeatherDisplay:10.37 W/m2 OVC
21:43 23.7 °C 21.2 °C 1019.2 hPa North 8.2 km/h   86% 0 mm WeatherDisplay:10.37 W/m2 OVC
21:48 23.7 °C 21.2 °C 1019.2 hPa North 8.2 km/h   86% 0 mm WeatherDisplay:10.37 W/m2 OVC
21:53 23.6 °C 21.1 °C 1019.2 hPa North 8.2 km/h   86% 0 mm WeatherDisplay:10.37 W/m2 OVC
21:58 23.6 °C 21.3 °C 1019.2 hPa North 8.2 km/h   87% 0 mm WeatherDisplay:10.37 W/m2 OVC
22:04 23.4 °C 21.2 °C 1019.2 hPa North 8.2 km/h   87% 0 mm WeatherDisplay:10.37 W/m2 OVC
22:09 23.3 °C 20.8 °C 1019.2 hPa North 8.2 km/h   86% 0 mm WeatherDisplay:10.37 W/m2 OVC
22:14 23.3 °C 21.1 °C 1019.5 hPa North 8.2 km/h   87% 0 mm WeatherDisplay:10.37 W/m2 OVC
22:19 23.3 °C 20.8 °C 1019.5 hPa North 8.2 km/h   86% 0 mm WeatherDisplay:10.37 W/m2 OVC
22:24 23.2 °C 20.7 °C 1019.5 hPa North 8.2 km/h   86% 0 mm WeatherDisplay:10.37 W/m2 OVC
22:29 23.2 °C 20.9 °C 1019.9 hPa North 8.2 km/h   87% 0 mm WeatherDisplay:10.37 W/m2 BKN
22:34 23.1 °C 20.8 °C 1019.9 hPa North 8.2 km/h   87% 0 mm WeatherDisplay:10.37 W/m2 BKN
22:39 23.1 °C 20.8 °C 1019.9 hPa North 8.2 km/h   87% 0 mm WeatherDisplay:10.37 W/m2 BKN
22:44 23 °C 20.7 °C 1019.9 hPa North 8.2 km/h   87% 0 mm WeatherDisplay:10.37 W/m2 BKN
22:49 22.9 °C 20.7 °C 1019.9 hPa North 8.2 km/h   87% 0 mm WeatherDisplay:10.37 W/m2 BKN
22:54 22.9 °C 20.6 °C 1019.9 hPa North 8.2 km/h   87% 0 mm WeatherDisplay:10.37 W/m2 BKN
22:59 22.8 °C 20.7 °C 1019.5 hPa North 8.2 km/h   88% 0 mm WeatherDisplay:10.37 W/m2 BKN
23:04 22.8 °C 20.7 °C 1019.5 hPa North 8.2 km/h   88% 0 mm WeatherDisplay:10.37 W/m2 BKN
23:09 22.8 °C 20.7 °C 1019.5 hPa North 8.2 km/h   88% 0 mm WeatherDisplay:10.37 W/m2 BKN
23:14 22.8 °C 20.7 °C 1019.5 hPa North 8.2 km/h   88% 0 mm WeatherDisplay:10.37 W/m2 BKN
23:20 22.7 °C 20.8 °C 1019.5 hPa North 8.2 km/h   89% 0 mm WeatherDisplay:10.37 W/m2 BKN
23:25 22.7 °C 20.8 °C 1019.9 hPa North 8.2 km/h   89% 0 mm WeatherDisplay:10.37 W/m2 BKN
23:30 22.8 °C 20.9 °C 1019.9 hPa North 8.2 km/h   89% 0 mm WeatherDisplay:10.37 W/m2 BKN
23:35 22.8 °C 20.9 °C 1019.9 hPa Calm     89% 0 mm WeatherDisplay:10.37 W/m2 BKN
23:40 22.8 °C 21.1 °C 1019.5 hPa Calm     90% 0 mm WeatherDisplay:10.37 W/m2 BKN
23:45 22.8 °C 21.1 °C 1019.9 hPa North 8.2 km/h   90% 0 mm WeatherDisplay:10.37 W/m2 BKN
23:50 22.8 °C 21.1 °C 1019.9 hPa Calm     90% 0 mm WeatherDisplay:10.37 W/m2 BKN
23:55 22.8 °C 21.1 °C 1019.9 hPa Calm     90% 0 mm WeatherDisplay:10.37 W/m2 BKN
Piedmont Bend
Compliments of Weather Underground - 4 mb